Rothbury, Michigan
Current Conditions -  °F | °C
As of 1:53 PM on Friday 24 Oct 2014 (Local Time) from KFFX Reporting Station
Haze Haze  
Wind Chill: 54°   Ceiling: 900
Heat Index: 54°   Visibility: 5mi
Dew Point: 51°   Wind: 7mph
Humidity: 89%   Direction: 270°W
Pressure: 30"   Gusts: NA
Location:  43.51°N, 86.35°W
Report Text: KFFX 241753Z AUTO 27006KT 5SM BR OVC009 12/11 A3000 RMK AO2 T01220105
Loading
Personal Weather Stations






























Interactive Weather Map
Tropical Storm Tracking
New forecast layout! Learn more

10-Day Weather Forecast

Advertisements
Track Severe Weather on mobile